sensor_id;sensor_type;location;lat;lon;timestamp;pressure;altitude;pressure_sealevel;temperature;humidity
37304;BME280;23188;51.188;16.374;2023-05-14T00:03:15;100704.23;;;9.62;93.21
37304;BME280;23188;51.188;16.374;2023-05-14T00:07:19;100698.86;;;9.60;92.81
37304;BME280;23188;51.188;16.374;2023-05-14T00:11:22;100697.34;;;9.49;90.66
37304;BME280;23188;51.188;16.374;2023-05-14T00:15:25;100703.06;;;9.43;91.60
37304;BME280;23188;51.188;16.374;2023-05-14T00:19:28;100702.18;;;9.40;93.46
37304;BME280;23188;51.188;16.374;2023-05-14T00:23:31;100697.70;;;9.34;93.84
37304;BME280;23188;51.188;16.374;2023-05-14T00:27:34;100690.66;;;9.25;94.33
37304;BME280;23188;51.188;16.374;2023-05-14T00:31:42;100688.21;;;9.20;94.75
37304;BME280;23188;51.188;16.374;2023-05-14T00:35:45;100685.04;;;9.20;95.99
37304;BME280;23188;51.188;16.374;2023-05-14T00:40:10;100682.01;;;9.22;96.25
37304;BME280;23188;51.188;16.374;2023-05-14T00:44:14;100680.81;;;9.24;96.38
37304;BME280;23188;51.188;16.374;2023-05-14T00:48:18;100677.90;;;9.28;96.22
37304;BME280;23188;51.188;16.374;2023-05-14T00:52:21;100681.66;;;9.33;96.03
37304;BME280;23188;51.188;16.374;2023-05-14T00:56:25;100685.06;;;9.37;95.52
37304;BME280;23188;51.188;16.374;2023-05-14T01:00:28;100684.80;;;9.41;95.54
37304;BME280;23188;51.188;16.374;2023-05-14T01:04:32;100682.88;;;9.43;95.26
37304;BME280;23188;51.188;16.374;2023-05-14T01:13:54;100685.06;;;9.47;94.10
37304;BME280;23188;51.188;16.374;2023-05-14T01:18:12;100694.60;;;9.42;92.39
37304;BME280;23188;51.188;16.374;2023-05-14T01:22:15;100689.20;;;9.36;92.43
37304;BME280;23188;51.188;16.374;2023-05-14T01:26:18;100686.19;;;9.28;92.47
37304;BME280;23188;51.188;16.374;2023-05-14T01:30:30;100682.70;;;9.13;93.68
37304;BME280;23188;51.188;16.374;2023-05-14T01:34:35;100683.39;;;9.02;94.54
37304;BME280;23188;51.188;16.374;2023-05-14T01:38:39;100682.50;;;8.99;94.61
37304;BME280;23188;51.188;16.374;2023-05-14T01:47:50;100682.46;;;8.74;97.69
37304;BME280;23188;51.188;16.374;2023-05-14T01:51:57;100678.69;;;8.70;97.92
37304;BME280;23188;51.188;16.374;2023-05-14T01:56:00;100677.14;;;8.75;98.72
37304;BME280;23188;51.188;16.374;2023-05-14T02:00:03;100676.30;;;8.82;98.85
37304;BME280;23188;51.188;16.374;2023-05-14T02:09:04;100675.41;;;9.00;98.49
37304;BME280;23188;51.188;16.374;2023-05-14T02:13:06;100671.73;;;8.99;97.88
37304;BME280;23188;51.188;16.374;2023-05-14T02:17:11;100669.47;;;9.02;97.40
37304;BME280;23188;51.188;16.374;2023-05-14T02:21:17;100663.20;;;9.05;97.11
37304;BME280;23188;51.188;16.374;2023-05-14T02:25:20;100661.57;;;9.03;95.78
37304;BME280;23188;51.188;16.374;2023-05-14T02:29:24;100658.37;;;8.80;95.84
37304;BME280;23188;51.188;16.374;2023-05-14T02:33:27;100658.02;;;8.61;96.56
37304;BME280;23188;51.188;16.374;2023-05-14T02:37:30;100657.27;;;8.54;97.71
37304;BME280;23188;51.188;16.374;2023-05-14T02:41:33;100661.48;;;8.52;98.48
37304;BME280;23188;51.188;16.374;2023-05-14T02:45:36;100653.79;;;8.53;98.60
37304;BME280;23188;51.188;16.374;2023-05-14T02:49:38;100650.96;;;8.59;98.50
37304;BME280;23188;51.188;16.374;2023-05-14T02:53:41;100650.66;;;8.63;98.46
37304;BME280;23188;51.188;16.374;2023-05-14T02:57:44;100649.31;;;8.65;97.82
37304;BME280;23188;51.188;16.374;2023-05-14T03:06:41;100653.01;;;8.65;95.85
37304;BME280;23188;51.188;16.374;2023-05-14T03:10:48;100649.73;;;8.66;94.58
37304;BME280;23188;51.188;16.374;2023-05-14T03:14:51;100654.25;;;8.65;94.09
37304;BME280;23188;51.188;16.374;2023-05-14T03:18:54;100651.73;;;8.63;93.67
37304;BME280;23188;51.188;16.374;2023-05-14T03:46:16;100656.73;;;8.41;95.63
37304;BME280;23188;51.188;16.374;2023-05-14T03:50:21;100661.33;;;8.43;96.15
37304;BME280;23188;51.188;16.374;2023-05-14T03:54:27;100662.47;;;8.45;96.89
37304;BME280;23188;51.188;16.374;2023-05-14T03:58:30;100663.73;;;8.50;98.71
37304;BME280;23188;51.188;16.374;2023-05-14T04:02:32;100659.65;;;8.71;99.29
37304;BME280;23188;51.188;16.374;2023-05-14T04:06:36;100656.54;;;9.35;100.00
37304;BME280;23188;51.188;16.374;2023-05-14T04:10:38;100648.16;;;10.36;99.44
37304;BME280;23188;51.188;16.374;2023-05-14T04:14:41;100644.20;;;11.25;94.56
37304;BME280;23188;51.188;16.374;2023-05-14T04:18:44;100643.41;;;12.03;92.98
37304;BME280;23188;51.188;16.374;2023-05-14T04:22:47;100635.32;;;12.98;89.90
37304;BME280;23188;51.188;16.374;2023-05-14T04:26:50;100632.73;;;13.81;85.90
37304;BME280;23188;51.188;16.374;2023-05-14T04:30:53;100629.86;;;14.38;82.38
37304;BME280;23188;51.188;16.374;2023-05-14T04:34:56;100633.73;;;15.21;80.44
37304;BME280;23188;51.188;16.374;2023-05-14T04:38:58;100628.75;;;16.19;75.80
37304;BME280;23188;51.188;16.374;2023-05-14T04:43:01;100626.11;;;16.85;71.39
37304;BME280;23188;51.188;16.374;2023-05-14T04:47:04;100629.98;;;17.15;69.73
37304;BME280;23188;51.188;16.374;2023-05-14T04:51:08;100626.60;;;17.20;68.93
37304;BME280;23188;51.188;16.374;2023-05-14T04:55:11;100621.98;;;17.56;68.11
37304;BME280;23188;51.188;16.374;2023-05-14T04:59:18;100615.29;;;18.02;64.55
37304;BME280;23188;51.188;16.374;2023-05-14T05:03:20;100611.06;;;18.43;63.73
37304;BME280;23188;51.188;16.374;2023-05-14T05:21:55;100606.66;;;18.98;58.70
37304;BME280;23188;51.188;16.374;2023-05-14T05:25:57;100612.27;;;18.01;60.67
37304;BME280;23188;51.188;16.374;2023-05-14T05:30:00;100614.61;;;16.90;64.50
37304;BME280;23188;51.188;16.374;2023-05-14T05:39:05;100608.59;;;15.60;70.63
37304;BME280;23188;51.188;16.374;2023-05-14T05:43:07;100599.40;;;15.41;71.67
37304;BME280;23188;51.188;16.374;2023-05-14T05:47:10;100593.58;;;15.57;70.87
37304;BME280;23188;51.188;16.374;2023-05-14T05:51:13;100590.99;;;15.48;71.97
37304;BME280;23188;51.188;16.374;2023-05-14T05:55:16;100592.05;;;15.33;72.66
37304;BME280;23188;51.188;16.374;2023-05-14T05:59:19;100595.88;;;15.47;73.17
37304;BME280;23188;51.188;16.374;2023-05-14T07:30:10;100552.74;;;15.99;74.20
37304;BME280;23188;51.188;16.374;2023-05-14T07:34:42;100545.04;;;16.10;71.33
37304;BME280;23188;51.188;16.374;2023-05-14T07:38:45;100547.91;;;16.24;71.27
37304;BME280;23188;51.188;16.374;2023-05-14T07:43:18;100549.04;;;16.61;71.70
37304;BME280;23188;51.188;16.374;2023-05-14T07:47:19;100539.98;;;17.26;69.62
37304;BME280;23188;51.188;16.374;2023-05-14T07:51:28;100535.38;;;17.84;67.80
37304;BME280;23188;51.188;16.374;2023-05-14T07:55:30;100533.63;;;18.30;64.37
37304;BME280;23188;51.188;16.374;2023-05-14T07:59:32;100533.54;;;18.57;62.63
37304;BME280;23188;51.188;16.374;2023-05-14T08:03:35;100530.77;;;18.79;62.30
37304;BME280;23188;51.188;16.374;2023-05-14T08:07:37;100529.35;;;19.03;62.47
37304;BME280;23188;51.188;16.374;2023-05-14T08:11:38;100527.85;;;19.22;60.60
37304;BME280;23188;51.188;16.374;2023-05-14T08:15:40;100519.48;;;19.41;59.72
37304;BME280;23188;51.188;16.374;2023-05-14T08:19:42;100516.98;;;19.56;59.68
37304;BME280;23188;51.188;16.374;2023-05-14T08:23:45;100513.19;;;19.69;58.39
37304;BME280;23188;51.188;16.374;2023-05-14T08:27:46;100513.11;;;19.81;57.65
37304;BME280;23188;51.188;16.374;2023-05-14T08:36:41;100508.06;;;19.68;56.95
37304;BME280;23188;51.188;16.374;2023-05-14T08:40:48;100505.77;;;19.60;56.99
37304;BME280;23188;51.188;16.374;2023-05-14T08:45:04;100502.29;;;19.73;59.18
37304;BME280;23188;51.188;16.374;2023-05-14T08:49:24;100489.65;;;19.86;57.97
37304;BME280;23188;51.188;16.374;2023-05-14T08:53:52;100490.53;;;19.89;56.71
37304;BME280;23188;51.188;16.374;2023-05-14T08:57:54;100486.32;;;19.94;59.22
37304;BME280;23188;51.188;16.374;2023-05-14T09:02:01;100489.29;;;20.03;58.02
37304;BME280;23188;51.188;16.374;2023-05-14T09:06:09;100485.73;;;20.15;58.11
37304;BME280;23188;51.188;16.374;2023-05-14T09:10:11;100481.49;;;20.26;58.81
37304;BME280;23188;51.188;16.374;2023-05-14T09:14:16;100475.45;;;20.30;55.93
37304;BME280;23188;51.188;16.374;2023-05-14T09:18:17;100474.63;;;20.37;57.00
37304;BME280;23188;51.188;16.374;2023-05-14T09:22:20;100470.15;;;20.53;55.23
37304;BME280;23188;51.188;16.374;2023-05-14T09:26:37;100464.02;;;20.54;54.11
37304;BME280;23188;51.188;16.374;2023-05-14T09:30:38;100457.65;;;20.50;56.19
37304;BME280;23188;51.188;16.374;2023-05-14T09:35:17;100451.72;;;20.58;56.22
37304;BME280;23188;51.188;16.374;2023-05-14T09:39:19;100443.59;;;20.63;55.20
37304;BME280;23188;51.188;16.374;2023-05-14T09:43:22;100437.63;;;20.76;55.84
37304;BME280;23188;51.188;16.374;2023-05-14T09:47:30;100431.04;;;20.93;55.40
37304;BME280;23188;51.188;16.374;2023-05-14T09:51:37;100416.92;;;21.14;54.98
37304;BME280;23188;51.188;16.374;2023-05-14T09:55:44;100418.50;;;21.15;52.44
37304;BME280;23188;51.188;16.374;2023-05-14T09:59:46;100411.39;;;21.07;50.72
37304;BME280;23188;51.188;16.374;2023-05-14T10:03:48;100401.84;;;20.93;50.77
37304;BME280;23188;51.188;16.374;2023-05-14T10:07:53;100399.86;;;20.80;51.84
37304;BME280;23188;51.188;16.374;2023-05-14T10:12:00;100389.42;;;20.71;50.86
37304;BME280;23188;51.188;16.374;2023-05-14T10:16:18;100385.27;;;20.71;51.13
37304;BME280;23188;51.188;16.374;2023-05-14T10:20:23;100379.09;;;20.76;51.04
37304;BME280;23188;51.188;16.374;2023-05-14T10:24:28;100379.86;;;20.80;50.76
37304;BME280;23188;51.188;16.374;2023-05-14T10:28:31;100374.13;;;20.84;51.09
37304;BME280;23188;51.188;16.374;2023-05-14T10:32:37;100367.95;;;20.90;52.21
37304;BME280;23188;51.188;16.374;2023-05-14T10:36:57;100366.44;;;21.09;51.84
37304;BME280;23188;51.188;16.374;2023-05-14T10:41:06;100357.73;;;21.26;50.65
37304;BME280;23188;51.188;16.374;2023-05-14T10:45:13;100357.66;;;21.33;50.84
37304;BME280;23188;51.188;16.374;2023-05-14T10:49:16;100357.19;;;21.40;52.30
37304;BME280;23188;51.188;16.374;2023-05-14T10:53:35;100358.27;;;21.58;49.71
37304;BME280;23188;51.188;16.374;2023-05-14T10:57:40;100350.02;;;21.56;49.96
37304;BME280;23188;51.188;16.374;2023-05-14T11:01:44;100344.02;;;21.65;50.07
37304;BME280;23188;51.188;16.374;2023-05-14T11:05:47;100343.02;;;21.78;51.22
37304;BME280;23188;51.188;16.374;2023-05-14T11:14:11;100330.25;;;22.01;49.39
37304;BME280;23188;51.188;16.374;2023-05-14T11:18:28;100329.51;;;22.11;52.09
37304;BME280;23188;51.188;16.374;2023-05-14T11:22:34;100320.64;;;22.25;50.72
37304;BME280;23188;51.188;16.374;2023-05-14T11:26:36;100313.05;;;22.22;48.42
37304;BME280;23188;51.188;16.374;2023-05-14T11:30:39;100308.38;;;22.11;47.74
37304;BME280;23188;51.188;16.374;2023-05-14T11:34:43;100306.45;;;22.09;47.48
37304;BME280;23188;51.188;16.374;2023-05-14T11:38:51;100304.79;;;22.08;47.33
37304;BME280;23188;51.188;16.374;2023-05-14T11:42:54;100301.63;;;22.10;46.94
37304;BME280;23188;51.188;16.374;2023-05-14T11:46:57;100303.35;;;22.15;48.76
37304;BME280;23188;51.188;16.374;2023-05-14T11:51:00;100299.41;;;22.32;50.56
37304;BME280;23188;51.188;16.374;2023-05-14T11:55:03;100294.66;;;22.43;49.73
37304;BME280;23188;51.188;16.374;2023-05-14T12:03:20;100280.10;;;22.68;49.19
37304;BME280;23188;51.188;16.374;2023-05-14T12:07:34;100283.11;;;22.64;47.60
37304;BME280;23188;51.188;16.374;2023-05-14T12:11:40;100281.30;;;22.60;47.90
37304;BME280;23188;51.188;16.374;2023-05-14T12:16:00;100268.89;;;22.61;48.41
37304;BME280;23188;51.188;16.374;2023-05-14T12:20:02;100263.55;;;22.81;48.76
37304;BME280;23188;51.188;16.374;2023-05-14T12:24:12;100262.39;;;22.90;48.36
37304;BME280;23188;51.188;16.374;2023-05-14T12:28:15;100257.63;;;22.82;47.26
37304;BME280;23188;51.188;16.374;2023-05-14T12:32:34;100249.12;;;22.76;47.02
37304;BME280;23188;51.188;16.374;2023-05-14T12:36:38;100245.61;;;22.68;47.06
37304;BME280;23188;51.188;16.374;2023-05-14T12:40:39;100243.38;;;22.72;46.08
37304;BME280;23188;51.188;16.374;2023-05-14T12:44:41;100238.08;;;22.77;47.45
37304;BME280;23188;51.188;16.374;2023-05-14T12:48:42;100236.67;;;22.75;45.05
37304;BME280;23188;51.188;16.374;2023-05-14T12:52:44;100232.35;;;22.65;45.65
37304;BME280;23188;51.188;16.374;2023-05-14T12:56:46;100224.81;;;22.63;45.79
37304;BME280;23188;51.188;16.374;2023-05-14T13:05:40;100220.05;;;22.69;47.83
37304;BME280;23188;51.188;16.374;2023-05-14T13:09:42;100219.21;;;22.85;49.08
37304;BME280;23188;51.188;16.374;2023-05-14T13:13:43;100222.38;;;22.99;48.62
37304;BME280;23188;51.188;16.374;2023-05-14T13:17:45;100216.95;;;23.09;46.54
37304;BME280;23188;51.188;16.374;2023-05-14T13:21:46;100210.30;;;23.13;46.46
37304;BME280;23188;51.188;16.374;2023-05-14T13:25:48;100204.63;;;23.15;46.67
37304;BME280;23188;51.188;16.374;2023-05-14T13:29:51;100195.70;;;23.30;47.50
37304;BME280;23188;51.188;16.374;2023-05-14T13:33:52;100188.66;;;23.50;45.45
37304;BME280;23188;51.188;16.374;2023-05-14T13:37:55;100188.77;;;23.43;44.47
37304;BME280;23188;51.188;16.374;2023-05-14T13:41:56;100184.71;;;23.31;43.43
37304;BME280;23188;51.188;16.374;2023-05-14T13:45:58;100177.66;;;23.33;45.26
37304;BME280;23188;51.188;16.374;2023-05-14T13:50:06;100175.98;;;23.34;46.22
37304;BME280;23188;51.188;16.374;2023-05-14T13:54:08;100172.17;;;23.40;47.25
37304;BME280;23188;51.188;16.374;2023-05-14T13:58:09;100169.96;;;23.61;47.12
37304;BME280;23188;51.188;16.374;2023-05-14T14:40:48;100131.42;;;23.48;46.45
37304;BME280;23188;51.188;16.374;2023-05-14T14:44:50;100131.41;;;23.50;47.46
37304;BME280;23188;51.188;16.374;2023-05-14T14:48:51;100131.46;;;23.58;46.29
37304;BME280;23188;51.188;16.374;2023-05-14T14:52:53;100127.80;;;23.54;45.98
37304;BME280;23188;51.188;16.374;2023-05-14T14:57:23;100129.69;;;23.52;44.72
37304;BME280;23188;51.188;16.374;2023-05-14T15:01:32;100127.89;;;23.54;45.05
37304;BME280;23188;51.188;16.374;2023-05-14T15:05:34;100119.20;;;23.55;45.64
37304;BME280;23188;51.188;16.374;2023-05-14T15:09:35;100113.32;;;23.52;47.04
37304;BME280;23188;51.188;16.374;2023-05-14T15:13:37;100111.98;;;23.51;47.05
37304;BME280;23188;51.188;16.374;2023-05-14T15:22:32;100105.99;;;23.39;47.37
37304;BME280;23188;51.188;16.374;2023-05-14T15:26:33;100104.29;;;23.23;48.68
37304;BME280;23188;51.188;16.374;2023-05-14T15:31:00;100099.81;;;23.26;47.51
37304;BME280;23188;51.188;16.374;2023-05-14T15:35:02;100098.52;;;23.22;48.04
37304;BME280;23188;51.188;16.374;2023-05-14T15:39:10;100096.59;;;23.08;47.78
37304;BME280;23188;51.188;16.374;2023-05-14T15:43:11;100094.94;;;23.01;48.47
37304;BME280;23188;51.188;16.374;2023-05-14T15:47:14;100090.64;;;22.97;48.98
37304;BME280;23188;51.188;16.374;2023-05-14T15:51:15;100086.96;;;22.89;48.96
37304;BME280;23188;51.188;16.374;2023-05-14T15:55:21;100084.16;;;22.77;48.92
37304;BME280;23188;51.188;16.374;2023-05-14T15:59:22;100079.10;;;22.62;48.54
37304;BME280;23188;51.188;16.374;2023-05-14T16:03:24;100071.17;;;22.63;47.57
37304;BME280;23188;51.188;16.374;2023-05-14T16:07:26;100073.55;;;22.61;47.34
37304;BME280;23188;51.188;16.374;2023-05-14T16:11:28;100075.30;;;22.56;47.73
37304;BME280;23188;51.188;16.374;2023-05-14T16:15:42;100072.21;;;22.47;49.47
37304;BME280;23188;51.188;16.374;2023-05-14T16:19:44;100072.50;;;22.42;48.87
37304;BME280;23188;51.188;16.374;2023-05-14T16:23:45;100069.70;;;22.39;49.27
37304;BME280;23188;51.188;16.374;2023-05-14T16:27:47;100065.45;;;22.27;50.36
37304;BME280;23188;51.188;16.374;2023-05-14T16:32:04;100063.71;;;21.87;52.98
37304;BME280;23188;51.188;16.374;2023-05-14T16:36:05;100062.83;;;21.47;56.01
37304;BME280;23188;51.188;16.374;2023-05-14T16:40:07;100063.35;;;21.27;57.49
37304;BME280;23188;51.188;16.374;2023-05-14T16:49:15;100067.55;;;20.74;60.84
37304;BME280;23188;51.188;16.374;2023-05-14T17:11:44;100074.34;;;19.34;66.62
37304;BME280;23188;51.188;16.374;2023-05-14T17:15:45;100071.63;;;19.16;68.16
37304;BME280;23188;51.188;16.374;2023-05-14T17:24:06;100075.23;;;18.76;70.89
37304;BME280;23188;51.188;16.374;2023-05-14T17:28:07;100076.48;;;18.62;71.35
37304;BME280;23188;51.188;16.374;2023-05-14T17:32:09;100075.95;;;18.51;71.61
37304;BME280;23188;51.188;16.374;2023-05-14T17:36:19;100074.09;;;18.38;72.52
37304;BME280;23188;51.188;16.374;2023-05-14T17:40:21;100072.66;;;18.29;73.44
37304;BME280;23188;51.188;16.374;2023-05-14T17:44:22;100080.00;;;18.15;74.62
37304;BME280;23188;51.188;16.374;2023-05-14T17:48:23;100079.17;;;18.04;75.75
37304;BME280;23188;51.188;16.374;2023-05-14T17:52:30;100078.95;;;17.92;76.95
37304;BME280;23188;51.188;16.374;2023-05-14T17:56:32;100074.73;;;17.86;77.20
37304;BME280;23188;51.188;16.374;2023-05-14T18:00:33;100074.09;;;17.79;77.55
37304;BME280;23188;51.188;16.374;2023-05-14T18:04:35;100075.29;;;17.70;78.16
37304;BME280;23188;51.188;16.374;2023-05-14T18:08:36;100082.93;;;17.61;78.27
37304;BME280;23188;51.188;16.374;2023-05-14T18:12:40;100084.48;;;17.51;78.22
37304;BME280;23188;51.188;16.374;2023-05-14T18:16:42;100079.37;;;17.46;78.16
37304;BME280;23188;51.188;16.374;2023-05-14T18:20:43;100082.29;;;17.39;78.34
37304;BME280;23188;51.188;16.374;2023-05-14T18:24:45;100078.90;;;17.35;78.47
37304;BME280;23188;51.188;16.374;2023-05-14T18:28:46;100075.45;;;17.34;78.51
37304;BME280;23188;51.188;16.374;2023-05-14T18:32:48;100075.67;;;17.37;77.99
37304;BME280;23188;51.188;16.374;2023-05-14T18:36:50;100069.55;;;17.37;78.43
37304;BME280;23188;51.188;16.374;2023-05-14T18:40:56;100065.91;;;17.33;79.25
37304;BME280;23188;51.188;16.374;2023-05-14T18:44:58;100069.13;;;17.26;79.37
37304;BME280;23188;51.188;16.374;2023-05-14T18:48:59;100071.20;;;17.21;79.99
37304;BME280;23188;51.188;16.374;2023-05-14T18:58:16;100076.02;;;17.04;82.92
37304;BME280;23188;51.188;16.374;2023-05-14T19:16:33;100074.66;;;16.96;84.90
37304;BME280;23188;51.188;16.374;2023-05-14T19:20:59;100078.48;;;16.99;84.05
37304;BME280;23188;51.188;16.374;2023-05-14T19:25:01;100075.61;;;16.96;84.01
37304;BME280;23188;51.188;16.374;2023-05-14T19:29:03;100067.20;;;16.88;83.35
37304;BME280;23188;51.188;16.374;2023-05-14T19:33:04;100061.56;;;16.75;83.94
37304;BME280;23188;51.188;16.374;2023-05-14T19:37:06;100058.39;;;16.57;85.98
37304;BME280;23188;51.188;16.374;2023-05-14T19:41:08;100059.52;;;16.57;87.74
37304;BME280;23188;51.188;16.374;2023-05-14T19:45:10;100056.80;;;16.59;87.36
37304;BME280;23188;51.188;16.374;2023-05-14T19:49:11;100054.79;;;16.57;87.59
37304;BME280;23188;51.188;16.374;2023-05-14T19:53:13;100051.39;;;16.59;87.25
37304;BME280;23188;51.188;16.374;2023-05-14T19:57:14;100049.08;;;16.62;87.75
37304;BME280;23188;51.188;16.374;2023-05-14T20:01:16;100043.13;;;16.61;86.37
37304;BME280;23188;51.188;16.374;2023-05-14T20:05:17;100037.72;;;16.53;84.14
37304;BME280;23188;51.188;16.374;2023-05-14T20:09:19;100036.48;;;16.48;83.85
37304;BME280;23188;51.188;16.374;2023-05-14T20:13:20;100033.73;;;16.44;84.16
37304;BME280;23188;51.188;16.374;2023-05-14T20:17:25;100038.33;;;16.36;83.03
37304;BME280;23188;51.188;16.374;2023-05-14T20:21:45;100034.67;;;16.24;83.54
37304;BME280;23188;51.188;16.374;2023-05-14T20:25:46;100023.92;;;16.04;83.76
37304;BME280;23188;51.188;16.374;2023-05-14T20:29:47;100021.08;;;15.85;86.88
37304;BME280;23188;51.188;16.374;2023-05-14T20:33:56;100018.58;;;15.74;90.35
37304;BME280;23188;51.188;16.374;2023-05-14T20:37:58;100019.40;;;15.66;91.37
37304;BME280;23188;51.188;16.374;2023-05-14T20:42:05;100006.34;;;15.69;92.08
37304;BME280;23188;51.188;16.374;2023-05-14T20:46:07;99999.52;;;15.68;94.17
37304;BME280;23188;51.188;16.374;2023-05-14T20:50:38;99988.50;;;15.70;94.07
37304;BME280;23188;51.188;16.374;2023-05-14T20:54:40;99984.38;;;15.69;95.40
37304;BME280;23188;51.188;16.374;2023-05-14T21:03:43;99962.73;;;15.48;98.09
37304;BME280;23188;51.188;16.374;2023-05-14T21:07:56;99955.90;;;15.33;97.88
37304;BME280;23188;51.188;16.374;2023-05-14T21:11:58;99949.15;;;15.11;99.67
37304;BME280;23188;51.188;16.374;2023-05-14T21:16:00;99941.59;;;15.06;99.58
37304;BME280;23188;51.188;16.374;2023-05-14T21:20:02;99932.54;;;14.85;100.00
37304;BME280;23188;51.188;16.374;2023-05-14T21:24:05;99919.38;;;14.60;100.00
37304;BME280;23188;51.188;16.374;2023-05-14T21:28:08;99912.08;;;14.44;100.00
37304;BME280;23188;51.188;16.374;2023-05-14T21:32:09;99913.85;;;14.48;100.00
37304;BME280;23188;51.188;16.374;2023-05-14T21:36:11;99917.42;;;14.58;100.00
37304;BME280;23188;51.188;16.374;2023-05-14T21:40:14;99912.27;;;14.62;100.00
37304;BME280;23188;51.188;16.374;2023-05-14T21:44:16;99915.01;;;14.66;100.00
37304;BME280;23188;51.188;16.374;2023-05-14T21:48:19;99917.01;;;14.82;100.00
37304;BME280;23188;51.188;16.374;2023-05-14T21:52:21;99921.31;;;15.02;100.00
37304;BME280;23188;51.188;16.374;2023-05-14T21:56:23;99911.86;;;15.17;100.00
37304;BME280;23188;51.188;16.374;2023-05-14T22:00:25;99913.95;;;15.22;100.00
37304;BME280;23188;51.188;16.374;2023-05-14T22:04:27;99905.41;;;15.21;100.00
37304;BME280;23188;51.188;16.374;2023-05-14T22:08:29;99903.28;;;15.07;100.00
37304;BME280;23188;51.188;16.374;2023-05-14T22:12:31;99905.17;;;14.87;100.00
37304;BME280;23188;51.188;16.374;2023-05-14T22:16:37;99902.79;;;14.73;100.00
37304;BME280;23188;51.188;16.374;2023-05-14T22:20:41;99904.95;;;14.78;100.00
37304;BME280;23188;51.188;16.374;2023-05-14T22:24:43;99909.44;;;14.92;100.00
37304;BME280;23188;51.188;16.374;2023-05-14T22:28:45;99923.93;;;15.04;100.00
37304;BME280;23188;51.188;16.374;2023-05-14T22:32:46;99931.54;;;15.05;100.00
37304;BME280;23188;51.188;16.374;2023-05-14T22:36:48;99936.49;;;14.93;100.00
37304;BME280;23188;51.188;16.374;2023-05-14T22:40:50;99946.64;;;14.71;100.00
37304;BME280;23188;51.188;16.374;2023-05-14T22:44:52;99944.09;;;14.49;100.00
37304;BME280;23188;51.188;16.374;2023-05-14T22:48:54;99937.21;;;14.45;100.00
37304;BME280;23188;51.188;16.374;2023-05-14T22:52:56;99935.64;;;14.46;100.00
37304;BME280;23188;51.188;16.374;2023-05-14T22:56:58;99931.67;;;14.50;100.00
37304;BME280;23188;51.188;16.374;2023-05-14T23:01:00;99923.05;;;14.54;100.00
37304;BME280;23188;51.188;16.374;2023-05-14T23:05:02;99920.24;;;14.61;100.00
37304;BME280;23188;51.188;16.374;2023-05-14T23:09:03;99908.88;;;14.59;100.00
37304;BME280;23188;51.188;16.374;2023-05-14T23:13:05;99898.45;;;14.63;100.00
37304;BME280;23188;51.188;16.374;2023-05-14T23:17:07;99890.34;;;14.70;100.00
37304;BME280;23188;51.188;16.374;2023-05-14T23:21:10;99882.14;;;14.70;100.00
37304;BME280;23188;51.188;16.374;2023-05-14T23:25:13;99871.78;;;14.77;100.00
37304;BME280;23188;51.188;16.374;2023-05-14T23:29:15;99864.50;;;14.87;100.00
37304;BME280;23188;51.188;16.374;2023-05-14T23:33:17;99859.55;;;14.98;100.00
37304;BME280;23188;51.188;16.374;2023-05-14T23:37:19;99854.92;;;15.02;100.00
37304;BME280;23188;51.188;16.374;2023-05-14T23:41:21;99848.83;;;14.97;100.00
37304;BME280;23188;51.188;16.374;2023-05-14T23:45:23;99841.14;;;14.90;100.00
37304;BME280;23188;51.188;16.374;2023-05-14T23:49:25;99837.91;;;14.97;100.00
37304;BME280;23188;51.188;16.374;2023-05-14T23:53:27;99830.98;;;14.98;100.00
37304;BME280;23188;51.188;16.374;2023-05-14T23:57:29;99818.90;;;14.99;100.00
